createdAt,value
2023-02-07T00:02:48.129Z,103859.22
2023-02-07T00:07:52.027Z,103861.56
2023-02-07T00:12:56.421Z,103855.16
2023-02-07T00:18:01.673Z,103861.75
2023-02-07T00:23:05.499Z,103861.50
2023-02-07T00:28:09.393Z,103861.50
2023-02-07T00:33:14.630Z,103857.25
2023-02-07T00:38:19.772Z,103845.91
2023-02-07T00:43:29.748Z,103837.47
2023-02-07T00:48:35.624Z,103830.53
2023-02-07T00:53:39.805Z,103838.31
2023-02-07T00:58:43.681Z,103825.69
2023-02-07T01:03:49.396Z,103845.53
2023-02-07T01:08:57.768Z,103851.91
2023-02-07T01:14:02.029Z,103837.25
2023-02-07T01:19:10.111Z,103836.59
2023-02-07T01:24:13.704Z,103834.94
2023-02-07T01:29:17.447Z,103846.06
2023-02-07T01:34:22.626Z,103842.72
2023-02-07T01:39:26.450Z,103855.09
2023-02-07T01:45:01.038Z,103850.72
2023-02-07T01:50:07.110Z,103852.16
2023-02-07T01:55:17.674Z,103853.00
2023-02-07T02:00:22.227Z,103849.28
2023-02-07T02:05:28.758Z,103855.97
2023-02-07T02:10:49.042Z,103855.56
2023-02-07T02:16:03.214Z,103858.44
2023-02-07T02:21:41.474Z,103860.00
2023-02-07T02:26:57.298Z,103855.62
2023-02-07T02:32:52.349Z,103855.94
2023-02-07T02:38:03.892Z,103852.16
2023-02-07T02:43:14.984Z,103862.78
2023-02-07T02:48:20.743Z,103837.06
2023-02-07T02:53:26.061Z,103842.38
2023-02-07T02:58:40.549Z,103839.09
2023-02-07T03:04:06.431Z,103848.91
2023-02-07T03:09:21.811Z,103839.22
2023-02-07T03:14:34.807Z,103838.50
2023-02-07T03:19:44.696Z,103830.84
2023-02-07T03:24:53.741Z,103835.94
2023-02-07T03:30:03.058Z,103848.59
2023-02-07T03:35:11.112Z,103836.06
2023-02-07T03:40:17.072Z,103834.31
2023-02-07T03:45:22.834Z,103833.97
2023-02-07T03:50:26.732Z,103836.94
2023-02-07T03:55:32.950Z,103834.84
2023-02-07T04:00:37.687Z,103822.94
2023-02-07T04:05:41.495Z,103829.09
2023-02-07T04:10:46.662Z,103827.84
2023-02-07T04:15:50.477Z,103818.03
2023-02-07T04:21:01.652Z,103817.31
2023-02-07T04:26:06.875Z,103814.69
2023-02-07T04:31:10.697Z,103820.00
2023-02-07T04:36:15.196Z,103817.78
2023-02-07T04:41:20.333Z,103818.75
2023-02-07T04:46:24.118Z,103829.66
2023-02-07T04:51:27.912Z,103817.41
2023-02-07T04:56:35.342Z,103828.88
2023-02-07T05:01:42.210Z,103827.28
2023-02-07T05:06:46.053Z,103827.53
2023-02-07T05:11:51.264Z,103821.03
2023-02-07T05:16:55.112Z,103831.06
2023-02-07T05:21:58.914Z,103820.78
2023-02-07T05:27:04.083Z,103835.34
2023-02-07T05:32:25.405Z,103835.75
2023-02-07T05:37:29.237Z,103827.63
2023-02-07T05:42:34.735Z,103846.16
2023-02-07T05:47:38.526Z,103863.78
2023-02-07T05:52:42.302Z,103850.72
2023-02-07T05:57:47.520Z,103846.87
2023-02-07T06:02:51.401Z,103857.13
2023-02-07T06:07:55.234Z,103868.31
2023-02-07T06:13:00.486Z,103874.37
2023-02-07T06:18:04.290Z,103875.47
2023-02-07T06:23:08.119Z,103885.13
2023-02-07T06:28:13.487Z,103889.53
2023-02-07T06:33:17.274Z,103886.06
2023-02-07T06:38:21.132Z,103884.94
2023-02-07T06:43:26.574Z,103892.06
2023-02-07T06:48:30.418Z,103902.75
2023-02-07T06:53:34.242Z,103903.16
2023-02-07T06:58:39.366Z,103895.13
2023-02-07T07:03:43.240Z,103898.47
2023-02-07T07:08:46.985Z,103912.59
2023-02-07T07:13:52.190Z,103907.00
2023-02-07T07:18:56.008Z,103923.09
2023-02-07T07:24:00.105Z,103924.06
2023-02-07T07:29:05.706Z,103913.38
2023-02-07T07:34:09.560Z,103927.00
2023-02-07T07:39:14.621Z,103931.94
2023-02-07T07:44:19.883Z,103931.75
2023-02-07T07:49:23.665Z,103941.97
2023-02-07T07:54:27.584Z,103941.06
2023-02-07T07:59:32.661Z,103941.97
2023-02-07T08:04:38.635Z,103932.31
2023-02-07T08:09:42.368Z,103938.88
2023-02-07T08:14:47.466Z,103936.13
2023-02-07T08:19:51.251Z,103945.78
2023-02-07T08:24:55.056Z,103935.06
2023-02-07T08:30:00.170Z,103936.38
2023-02-07T08:35:04.060Z,103942.00
2023-02-07T08:40:09.264Z,103936.22
2023-02-07T08:45:16.076Z,103940.81
2023-02-07T08:50:20.661Z,103928.53
2023-02-07T08:55:24.717Z,103916.88
2023-02-07T09:00:29.846Z,103925.94
2023-02-07T09:05:34.236Z,103931.44
2023-02-07T09:10:38.588Z,103931.53
2023-02-07T09:15:44.008Z,103933.19
2023-02-07T09:20:47.781Z,103927.59
2023-02-07T09:25:54.219Z,103917.34
2023-02-07T09:30:59.543Z,103912.06
2023-02-07T09:36:04.212Z,103921.22
2023-02-07T09:41:22.219Z,103910.72
2023-02-07T09:46:35.790Z,103908.94
2023-02-07T09:51:41.057Z,103900.03
2023-02-07T09:56:46.466Z,103909.34
2023-02-07T10:01:55.074Z,103919.88
2023-02-07T10:07:01.132Z,103903.84
2023-02-07T10:12:10.910Z,103910.13
2023-02-07T10:17:34.198Z,103906.78
2023-02-07T10:22:46.374Z,103891.06
2023-02-07T10:28:10.406Z,103898.50
2023-02-07T10:33:18.097Z,103896.59
2023-02-07T10:38:30.855Z,103892.66
2023-02-07T10:43:36.005Z,103890.38
2023-02-07T10:48:41.453Z,103892.28
2023-02-07T10:53:54.815Z,103889.56
2023-02-07T10:59:00.472Z,103868.91
2023-02-07T11:04:24.139Z,103883.53
2023-02-07T11:09:28.077Z,103875.22
2023-02-07T11:14:31.853Z,103873.50
2023-02-07T11:19:37.602Z,103874.06
2023-02-07T11:24:41.983Z,103859.97
2023-02-07T11:29:50.899Z,103856.97
2023-02-07T11:34:58.563Z,103848.91
2023-02-07T11:40:23.270Z,103843.81
2023-02-07T11:45:28.246Z,103832.66
2023-02-07T11:50:39.327Z,103834.03
2023-02-07T11:55:44.667Z,103831.59
2023-02-07T12:00:51.177Z,103829.81
2023-02-07T12:06:02.960Z,103825.84
2023-02-07T12:11:12.785Z,103831.62
2023-02-07T12:16:21.722Z,103828.38
2023-02-07T12:21:32.064Z,103826.47
2023-02-07T12:26:44.376Z,103822.94
2023-02-07T12:31:55.759Z,103833.09
2023-02-07T12:37:06.353Z,103830.53
2023-02-07T12:42:24.711Z,103827.47
2023-02-07T12:47:42.722Z,103829.16
2023-02-07T12:52:57.566Z,103823.81
2023-02-07T12:58:17.791Z,103825.06
2023-02-07T13:03:35.414Z,103819.56
2023-02-07T13:08:51.630Z,103826.84
2023-02-07T13:14:06.329Z,103812.03
2023-02-07T13:19:20.656Z,103813.16
2023-02-07T13:24:30.171Z,103814.78
2023-02-07T13:29:37.244Z,103804.25
2023-02-07T13:34:46.335Z,103812.09
2023-02-07T13:39:59.253Z,103806.59
2023-02-07T13:45:07.868Z,103806.69
2023-02-07T13:50:32.459Z,103808.28
2023-02-07T13:55:39.606Z,103799.75
2023-02-07T14:01:08.918Z,103793.38
2023-02-07T14:06:18.399Z,103789.28
2023-02-07T14:11:36.331Z,103787.53
2023-02-07T14:16:50.538Z,103793.63
2023-02-07T14:22:15.085Z,103783.25
2023-02-07T14:27:33.841Z,103776.59
2023-02-07T14:32:43.947Z,103763.03
2023-02-07T14:37:53.566Z,103778.59
2023-02-07T14:43:02.892Z,103768.09
2023-02-07T14:48:09.212Z,103773.03
2023-02-07T14:53:15.823Z,103779.91
2023-02-07T14:58:28.092Z,103777.69
2023-02-07T15:03:34.884Z,103771.28
2023-02-07T15:08:38.891Z,103768.91
2023-02-07T15:13:47.587Z,103768.94
2023-02-07T15:18:58.442Z,103773.44
2023-02-07T15:24:04.749Z,103765.56
2023-02-07T15:29:21.928Z,103767.22
2023-02-07T15:34:31.753Z,103774.66
2023-02-07T15:39:35.693Z,103784.06
2023-02-07T15:44:50.665Z,103783.03
2023-02-07T15:50:00.323Z,103793.09
2023-02-07T15:55:07.027Z,103779.34
2023-02-07T16:00:20.231Z,103781.97
2023-02-07T16:05:27.925Z,103781.12
2023-02-07T16:10:40.269Z,103777.56
2023-02-07T16:15:57.081Z,103781.75
2023-02-07T16:21:01.193Z,103782.81
2023-02-07T16:26:05.681Z,103794.66
2023-02-07T16:31:11.072Z,103791.09
2023-02-07T16:36:16.917Z,103791.56
2023-02-07T16:41:28.557Z,103794.25
2023-02-07T16:46:34.383Z,103790.88
2023-02-07T16:51:38.367Z,103804.78
2023-02-07T16:56:52.429Z,103804.34
2023-02-07T17:01:57.905Z,103807.47
2023-02-07T17:07:02.009Z,103811.91
2023-02-07T17:12:07.290Z,103802.09
2023-02-07T17:17:13.381Z,103814.66
2023-02-07T17:22:17.487Z,103814.06
2023-02-07T17:27:21.252Z,103823.28
2023-02-07T17:32:26.428Z,103825.19
2023-02-07T17:37:30.538Z,103825.97
2023-02-07T17:42:34.318Z,103825.50
2023-02-07T17:47:39.693Z,103831.84
2023-02-07T17:52:43.508Z,103834.88
2023-02-07T17:57:47.286Z,103827.28
2023-02-07T18:02:53.422Z,103828.09
2023-02-07T18:07:57.638Z,103830.78
2023-02-07T18:13:01.982Z,103832.72
2023-02-07T18:18:07.632Z,103830.22
2023-02-07T18:23:13.695Z,103829.00
2023-02-07T18:28:18.390Z,103823.97
2023-02-07T18:33:25.719Z,103825.78
2023-02-07T18:38:29.690Z,103828.03
2023-02-07T18:43:33.668Z,103826.78
2023-02-07T18:48:39.288Z,103824.25
2023-02-07T18:53:44.245Z,103828.31
2023-02-07T18:58:49.578Z,103829.59
2023-02-07T19:03:56.398Z,103831.44
2023-02-07T19:09:00.459Z,103834.16
2023-02-07T19:14:04.623Z,103836.91
2023-02-07T19:19:11.970Z,103840.56
2023-02-07T19:24:18.632Z,103837.09
2023-02-07T19:29:28.217Z,103830.13
2023-02-07T19:34:34.130Z,103827.94
2023-02-07T19:39:38.083Z,103840.91
2023-02-07T19:44:41.924Z,103835.38
2023-02-07T19:49:51.888Z,103833.91
2023-02-07T19:54:55.979Z,103830.78
2023-02-07T20:00:00.622Z,103832.22
2023-02-07T20:05:06.368Z,103823.63
2023-02-07T20:10:11.190Z,103813.37
2023-02-07T20:15:15.086Z,103813.53
2023-02-07T20:20:20.421Z,103816.03
2023-02-07T20:25:24.310Z,103814.00
2023-02-07T20:30:28.847Z,103804.84
2023-02-07T20:35:36.466Z,103810.28
2023-02-07T20:40:40.653Z,103799.28
2023-02-07T20:45:44.761Z,103803.97
2023-02-07T20:50:57.952Z,103790.44
2023-02-07T20:56:10.533Z,103788.56
2023-02-07T21:01:16.914Z,103785.41
2023-02-07T21:06:25.309Z,103782.75
2023-02-07T21:11:33.642Z,103783.84
2023-02-07T21:16:37.434Z,103783.06
2023-02-07T21:21:42.892Z,103782.63
2023-02-07T21:26:48.720Z,103787.22
2023-02-07T21:31:53.364Z,103784.44
2023-02-07T21:36:58.841Z,103772.37
2023-02-07T21:42:02.654Z,103770.50
2023-02-07T21:47:06.460Z,103778.25
2023-02-07T21:52:11.991Z,103777.72
2023-02-07T21:57:15.806Z,103754.09
2023-02-07T22:02:19.637Z,103751.31
2023-02-07T22:07:24.950Z,103752.44
2023-02-07T22:12:29.002Z,103758.37
2023-02-07T22:17:32.943Z,103753.81
2023-02-07T22:22:38.086Z,103747.22
2023-02-07T22:27:41.843Z,103756.84
2023-02-07T22:32:47.732Z,103757.34
2023-02-07T22:37:52.820Z,103762.59
2023-02-07T22:42:56.603Z,103764.16
2023-02-07T22:48:00.327Z,103757.69
2023-02-07T22:53:05.478Z,103761.53
2023-02-07T22:58:09.531Z,103759.34
2023-02-07T23:03:13.356Z,103759.88
2023-02-07T23:08:19.219Z,103760.78
2023-02-07T23:13:23.134Z,103766.69
2023-02-07T23:18:26.950Z,103783.63
2023-02-07T23:23:32.040Z,103772.34
2023-02-07T23:28:37.157Z,103779.25
2023-02-07T23:33:43.910Z,103776.81
2023-02-07T23:38:50.117Z,103770.28
2023-02-07T23:43:54.152Z,103773.16
2023-02-07T23:48:57.969Z,103776.31
2023-02-07T23:54:03.472Z,103771.66
2023-02-07T23:59:07.550Z,103776.75
